DLH1330 EDDF-GMMN
Flight info
| Callsign | DLH1330 |
|---|---|
| Flight time | N/A |
| Altitude | 35000 |
| Route | ANEKI2L ANEKI Y163 HERBI Y164 MOPAN DCT LUTIX DCT BENOT DCT NEMOS DCT NINTU DCT MEBAK DCT REPSI DCT LERGA DCT MINSO DCT NARAK/N0453F370 DCT AGN DCT MAQAB DCT TIVLI N869 GALTO UB11 TUSOR |
| Aircraft | A321/M-SDE2E3FGIJ1LORWXYZ/HB1 |
Departure
| Time | N/A |
|---|---|
| Airport | Frankfurt Main Airport (EDDF) |
Arrival
| Time | 2026-05-06 19:59 |
|---|---|
| Airport | Mohammed V International Airport (GMMN) |
| Time | Latitude | Longitude | Altitude | Speed | Heading |
|---|---|---|---|---|---|
| 2026-05-06 19:28 | 34.98567 | -5.85847 | 36940 ft | 394 kts | 219° |
| 2026-05-06 19:28 | 34.94126 | -5.89720 | 36942 ft | 394 kts | 219° |
| 2026-05-06 19:29 | 34.89668 | -5.93623 | 36936 ft | 393 kts | 220° |
| 2026-05-06 19:29 | 34.85382 | -5.97760 | 36937 ft | 392 kts | 222° |
| 2026-05-06 19:30 | 34.81204 | -6.02022 | 36934 ft | 391 kts | 223° |
| 2026-05-06 19:30 | 34.77037 | -6.06228 | 36947 ft | 390 kts | 222° |
| 2026-05-06 19:31 | 34.72832 | -6.10414 | 36947 ft | 390 kts | 222° |
| 2026-05-06 19:31 | 34.66533 | -6.16623 | 36938 ft | 390 kts | 221° |
| 2026-05-06 19:32 | 34.62308 | -6.20786 | 36937 ft | 390 kts | 221° |
| 2026-05-06 19:32 | 34.58086 | -6.24942 | 36934 ft | 390 kts | 221° |
| 2026-05-06 19:33 | 34.56318 | -6.26677 | 36903 ft | 379 kts | 221° |
| 2026-05-06 19:33 | 34.54299 | -6.28652 | 36912 ft | 364 kts | 222° |
| 2026-05-06 19:33 | 34.52389 | -6.30526 | 36918 ft | 350 kts | 222° |
| 2026-05-06 19:33 | 34.50459 | -6.32239 | 36918 ft | 338 kts | 215° |
| 2026-05-06 19:34 | 34.48387 | -6.33534 | 36667 ft | 334 kts | 208° |
| 2026-05-06 19:34 | 34.46151 | -6.34483 | 35920 ft | 346 kts | 201° |
| 2026-05-06 19:34 | 34.43854 | -6.35227 | 35451 ft | 344 kts | 201° |
| 2026-05-06 19:34 | 34.41553 | -6.36006 | 35054 ft | 341 kts | 202° |
| 2026-05-06 19:35 | 34.39290 | -6.36796 | 34753 ft | 336 kts | 202° |
| 2026-05-06 19:35 | 34.37045 | -6.37592 | 34437 ft | 342 kts | 202° |
| 2026-05-06 19:35 | 34.34698 | -6.38440 | 34011 ft | 363 kts | 202° |
| 2026-05-06 19:35 | 34.32198 | -6.39344 | 33493 ft | 385 kts | 201° |
| 2026-05-06 19:36 | 34.29558 | -6.40290 | 32976 ft | 405 kts | 201° |
| 2026-05-06 19:36 | 34.26798 | -6.41266 | 32466 ft | 417 kts | 201° |
| 2026-05-06 19:36 | 34.24008 | -6.42232 | 31939 ft | 415 kts | 201° |
| 2026-05-06 19:36 | 34.21237 | -6.43180 | 31414 ft | 412 kts | 201° |
| 2026-05-06 19:37 | 34.18492 | -6.44121 | 30901 ft | 409 kts | 201° |
| 2026-05-06 19:37 | 34.15767 | -6.45063 | 30387 ft | 406 kts | 201° |
| 2026-05-06 19:37 | 34.13062 | -6.46004 | 29867 ft | 404 kts | 201° |
| 2026-05-06 19:37 | 34.10420 | -6.46927 | 29367 ft | 402 kts | 201° |
| 2026-05-06 19:38 | 34.07719 | -6.47873 | 28869 ft | 405 kts | 201° |
| 2026-05-06 19:38 | 34.04992 | -6.48828 | 28392 ft | 404 kts | 201° |
| 2026-05-06 19:38 | 34.02304 | -6.49767 | 27915 ft | 399 kts | 201° |
| 2026-05-06 19:38 | 33.99649 | -6.50699 | 27478 ft | 395 kts | 202° |
| 2026-05-06 19:39 | 33.97168 | -6.52008 | 27034 ft | 385 kts | 214° |
| 2026-05-06 19:39 | 33.95045 | -6.53910 | 26605 ft | 378 kts | 226° |
| 2026-05-06 19:39 | 33.93169 | -6.56120 | 26184 ft | 376 kts | 227° |
| 2026-05-06 19:39 | 33.91354 | -6.58257 | 25764 ft | 374 kts | 226° |
| 2026-05-06 19:40 | 33.89488 | -6.60445 | 25323 ft | 372 kts | 226° |
| 2026-05-06 19:40 | 33.87638 | -6.62611 | 24892 ft | 370 kts | 226° |
| 2026-05-06 19:40 | 33.85800 | -6.64760 | 24443 ft | 367 kts | 226° |
| 2026-05-06 19:40 | 33.83972 | -6.66896 | 23996 ft | 365 kts | 226° |
| 2026-05-06 19:41 | 33.82165 | -6.69011 | 23541 ft | 363 kts | 226° |
| 2026-05-06 19:41 | 33.80355 | -6.71128 | 23042 ft | 361 kts | 226° |
| 2026-05-06 19:41 | 33.78561 | -6.73225 | 22584 ft | 359 kts | 226° |
| 2026-05-06 19:41 | 33.76775 | -6.75310 | 22100 ft | 357 kts | 226° |
| 2026-05-06 19:42 | 33.74996 | -6.77386 | 21675 ft | 355 kts | 226° |
| 2026-05-06 19:42 | 33.73202 | -6.79478 | 21217 ft | 354 kts | 226° |
| 2026-05-06 19:42 | 33.71463 | -6.81504 | 20771 ft | 352 kts | 226° |
| 2026-05-06 19:42 | 33.69708 | -6.83549 | 20322 ft | 351 kts | 226° |
| 2026-05-06 19:43 | 33.67956 | -6.85590 | 19876 ft | 350 kts | 226° |
| 2026-05-06 19:43 | 33.66210 | -6.87618 | 19413 ft | 349 kts | 225° |
| 2026-05-06 19:43 | 33.64368 | -6.89277 | 18976 ft | 351 kts | 212° |
| 2026-05-06 19:44 | 33.62708 | -6.90168 | 18625 ft | 353 kts | 202° |
| 2026-05-06 19:44 | 33.60369 | -6.91087 | 18147 ft | 353 kts | 201° |
| 2026-05-06 19:44 | 33.58075 | -6.91986 | 17640 ft | 350 kts | 201° |
| 2026-05-06 19:44 | 33.55770 | -6.92894 | 17182 ft | 348 kts | 201° |
| 2026-05-06 19:45 | 33.53474 | -6.93796 | 16730 ft | 345 kts | 201° |
| 2026-05-06 19:45 | 33.51193 | -6.94694 | 16187 ft | 344 kts | 201° |
| 2026-05-06 19:45 | 33.48905 | -6.95600 | 15467 ft | 346 kts | 201° |
| 2026-05-06 19:45 | 33.46653 | -6.96493 | 15074 ft | 337 kts | 201° |
| 2026-05-06 19:46 | 33.44437 | -6.97370 | 14571 ft | 332 kts | 201° |
| 2026-05-06 19:46 | 33.42243 | -6.98237 | 14063 ft | 330 kts | 200° |
| 2026-05-06 19:46 | 33.40072 | -6.99095 | 13645 ft | 328 kts | 200° |
| 2026-05-06 19:46 | 33.37907 | -6.99950 | 13231 ft | 326 kts | 200° |
| 2026-05-06 19:47 | 33.35779 | -7.00790 | 12833 ft | 325 kts | 200° |
| 2026-05-06 19:47 | 33.33637 | -7.01636 | 12435 ft | 323 kts | 200° |
| 2026-05-06 19:47 | 33.31506 | -7.02476 | 12041 ft | 322 kts | 201° |
| 2026-05-06 19:47 | 33.29375 | -7.03313 | 11645 ft | 320 kts | 200° |
| 2026-05-06 19:48 | 33.27263 | -7.04141 | 11256 ft | 318 kts | 201° |
| 2026-05-06 19:48 | 33.25155 | -7.04969 | 10868 ft | 317 kts | 201° |
| 2026-05-06 19:48 | 33.23085 | -7.05782 | 10480 ft | 315 kts | 200° |
| 2026-05-06 19:48 | 33.21042 | -7.06696 | 10104 ft | 311 kts | 210° |
| 2026-05-06 19:49 | 33.19322 | -7.08229 | 9695 ft | 307 kts | 228° |
| 2026-05-06 19:49 | 33.18116 | -7.10311 | 9298 ft | 305 kts | 245° |
| 2026-05-06 19:49 | 33.17502 | -7.12741 | 8912 ft | 306 kts | 259° |
| 2026-05-06 19:49 | 33.17122 | -7.15240 | 8527 ft | 305 kts | 258° |
| 2026-05-06 19:50 | 33.16744 | -7.17697 | 8152 ft | 305 kts | 258° |
| 2026-05-06 19:50 | 33.16357 | -7.20183 | 7769 ft | 304 kts | 258° |
| 2026-05-06 19:50 | 33.15970 | -7.22651 | 7399 ft | 303 kts | 258° |
| 2026-05-06 19:50 | 33.15579 | -7.25140 | 7020 ft | 299 kts | 258° |
| 2026-05-06 19:51 | 33.15323 | -7.27539 | 6895 ft | 284 kts | 269° |
| 2026-05-06 19:51 | 33.15473 | -7.29812 | 6777 ft | 271 kts | 274° |
| 2026-05-06 19:51 | 33.15656 | -7.31999 | 6652 ft | 256 kts | 274° |
| 2026-05-06 19:51 | 33.15821 | -7.34006 | 6537 ft | 229 kts | 274° |
| 2026-05-06 19:52 | 33.15970 | -7.35828 | 6057 ft | 216 kts | 274° |
| 2026-05-06 19:52 | 33.16115 | -7.37609 | 5263 ft | 216 kts | 275° |
| 2026-05-06 19:52 | 33.16258 | -7.39415 | 4597 ft | 219 kts | 276° |
| 2026-05-06 19:52 | 33.16403 | -7.41222 | 4450 ft | 224 kts | 277° |
| 2026-05-06 19:53 | 33.16554 | -7.43082 | 4323 ft | 225 kts | 278° |
| 2026-05-06 19:53 | 33.16703 | -7.44942 | 4192 ft | 224 kts | 277° |
| 2026-05-06 19:53 | 33.16851 | -7.46791 | 4067 ft | 225 kts | 276° |
| 2026-05-06 19:53 | 33.16996 | -7.48614 | 3938 ft | 217 kts | 277° |
| 2026-05-06 19:54 | 33.17256 | -7.50372 | 3818 ft | 212 kts | 291° |
| 2026-05-06 19:54 | 33.17966 | -7.51890 | 3691 ft | 208 kts | 311° |
| 2026-05-06 19:54 | 33.19033 | -7.52990 | 3569 ft | 205 kts | 330° |
| 2026-05-06 19:54 | 33.20345 | -7.53605 | 3564 ft | 203 kts | 346° |
| 2026-05-06 19:55 | 33.21705 | -7.54067 | 3384 ft | 202 kts | 345° |
| 2026-05-06 19:55 | 33.23060 | -7.54531 | 3146 ft | 203 kts | 346° |
| 2026-05-06 19:55 | 33.24399 | -7.54988 | 2878 ft | 198 kts | 345° |
| 2026-05-06 19:55 | 33.25726 | -7.55442 | 2613 ft | 197 kts | 346° |
| 2026-05-06 19:56 | 33.26992 | -7.55875 | 2377 ft | 178 kts | 345° |
| 2026-05-06 19:56 | 33.28107 | -7.56256 | 2134 ft | 156 kts | 346° |
| 2026-05-06 19:56 | 33.29102 | -7.56596 | 1928 ft | 146 kts | 346° |
| 2026-05-06 19:56 | 33.30060 | -7.56923 | 1741 ft | 138 kts | 346° |
| 2026-05-06 19:57 | 33.30962 | -7.57231 | 1563 ft | 132 kts | 345° |
| 2026-05-06 19:57 | 33.31853 | -7.57533 | 1361 ft | 134 kts | 345° |
| 2026-05-06 19:57 | 33.32735 | -7.57848 | 1176 ft | 132 kts | 343° |
| 2026-05-06 19:57 | 33.33621 | -7.58157 | 1030 ft | 133 kts | 347° |
| 2026-05-06 19:58 | 33.34498 | -7.58446 | 831 ft | 132 kts | 346° |
| 2026-05-06 19:58 | 33.35379 | -7.58746 | 662 ft | 127 kts | 346° |
| 2026-05-06 19:58 | 33.36132 | -7.58998 | 651 ft | 96 kts | 344° |
| 2026-05-06 19:58 | 33.36660 | -7.59169 | 652 ft | 66 kts | 346° |
| 2026-05-06 19:59 | 33.37035 | -7.59294 | 653 ft | 50 kts | 343° |
| 2026-05-06 19:59 | 33.37358 | -7.59409 | 655 ft | 47 kts | 343° |
| 2026-05-06 19:59 | 33.37654 | -7.59512 | 654 ft | 30 kts | 344° |
| 2026-05-06 19:59 | 33.37725 | -7.59463 | 651 ft | 10 kts | 75° |
| 2026-05-06 20:00 | 33.37748 | -7.59379 | 652 ft | 11 kts | 72° |
| 2026-05-06 20:00 | 33.37772 | -7.59278 | 649 ft | 15 kts | 75° |
| 2026-05-06 20:00 | 33.37805 | -7.59133 | 646 ft | 20 kts | 74° |
| 2026-05-06 20:00 | 33.37833 | -7.59017 | 651 ft | 13 kts | 73° |
| 2026-05-06 20:01 | 33.37857 | -7.58921 | 652 ft | 12 kts | 73° |
| 2026-05-06 20:01 | 33.37882 | -7.58820 | 653 ft | 13 kts | 73° |
| 2026-05-06 20:01 | 33.37910 | -7.58706 | 653 ft | 15 kts | 74° |
| 2026-05-06 20:01 | 33.37869 | -7.58589 | 653 ft | 17 kts | 127° |
| 2026-05-06 20:02 | 33.37785 | -7.58488 | 653 ft | 18 kts | 152° |
| 2026-05-06 20:02 | 33.37668 | -7.58444 | 653 ft | 17 kts | 166° |
| 2026-05-06 20:02 | 33.37565 | -7.58424 | 653 ft | 14 kts | 165° |
| 2026-05-06 20:02 | 33.37483 | -7.58394 | 653 ft | 7 kts | 147° |
| 2026-05-06 20:03 | 33.37485 | -7.58343 | 653 ft | 5 kts | 78° |
| 2026-05-06 20:03 | 33.37490 | -7.58320 | 655 ft | 3 kts | 77° |
| 2026-05-06 20:03 | 33.37492 | -7.58310 | 654 ft | 0 kts | 77° |